sensor_id;sensor_type;location;lat;lon;timestamp;P1;durP1;ratioP1;P2;durP2;ratioP2
12290;SDS011;6208;48.956;9.076;2022-12-18T00:01:12;53.67;;;31.70;;
12290;SDS011;6208;48.956;9.076;2022-12-18T00:04:24;56.07;;;30.87;;
12290;SDS011;6208;48.956;9.076;2022-12-18T00:07:09;52.23;;;29.03;;
12290;SDS011;6208;48.956;9.076;2022-12-18T00:09:53;50.53;;;30.73;;
12290;SDS011;6208;48.956;9.076;2022-12-18T00:12:37;49.40;;;31.37;;
12290;SDS011;6208;48.956;9.076;2022-12-18T00:15:21;57.30;;;32.57;;
12290;SDS011;6208;48.956;9.076;2022-12-18T00:18:06;53.87;;;31.23;;
12290;SDS011;6208;48.956;9.076;2022-12-18T00:20:50;50.53;;;32.63;;
12290;SDS011;6208;48.956;9.076;2022-12-18T00:23:34;58.17;;;32.20;;
12290;SDS011;6208;48.956;9.076;2022-12-18T00:26:20;52.17;;;32.23;;
12290;SDS011;6208;48.956;9.076;2022-12-18T00:29:09;53.10;;;30.27;;
12290;SDS011;6208;48.956;9.076;2022-12-18T00:31:56;64.03;;;31.10;;
12290;SDS011;6208;48.956;9.076;2022-12-18T00:34:41;57.37;;;30.20;;
12290;SDS011;6208;48.956;9.076;2022-12-18T00:37:25;53.80;;;31.67;;
12290;SDS011;6208;48.956;9.076;2022-12-18T00:40:09;56.40;;;33.17;;
12290;SDS011;6208;48.956;9.076;2022-12-18T00:42:54;58.60;;;32.37;;
12290;SDS011;6208;48.956;9.076;2022-12-18T00:45:41;54.57;;;30.03;;
12290;SDS011;6208;48.956;9.076;2022-12-18T00:48:25;57.03;;;30.87;;
12290;SDS011;6208;48.956;9.076;2022-12-18T00:51:09;59.13;;;32.20;;
12290;SDS011;6208;48.956;9.076;2022-12-18T00:53:53;52.87;;;31.13;;
12290;SDS011;6208;48.956;9.076;2022-12-18T00:56:38;54.00;;;31.07;;
12290;SDS011;6208;48.956;9.076;2022-12-18T00:59:23;59.13;;;30.47;;
12290;SDS011;6208;48.956;9.076;2022-12-18T01:02:07;52.37;;;29.60;;
12290;SDS011;6208;48.956;9.076;2022-12-18T01:04:52;50.10;;;30.03;;
12290;SDS011;6208;48.956;9.076;2022-12-18T01:07:36;54.13;;;30.03;;
12290;SDS011;6208;48.956;9.076;2022-12-18T01:10:21;55.13;;;28.87;;
12290;SDS011;6208;48.956;9.076;2022-12-18T01:13:05;52.13;;;30.33;;
12290;SDS011;6208;48.956;9.076;2022-12-18T01:15:50;51.37;;;29.47;;
12290;SDS011;6208;48.956;9.076;2022-12-18T01:18:35;52.70;;;31.03;;
12290;SDS011;6208;48.956;9.076;2022-12-18T01:21:19;52.10;;;29.33;;
12290;SDS011;6208;48.956;9.076;2022-12-18T01:24:04;54.37;;;29.77;;
12290;SDS011;6208;48.956;9.076;2022-12-18T01:26:50;53.53;;;29.93;;
12290;SDS011;6208;48.956;9.076;2022-12-18T01:29:34;51.13;;;29.03;;
12290;SDS011;6208;48.956;9.076;2022-12-18T01:32:18;51.17;;;29.30;;
12290;SDS011;6208;48.956;9.076;2022-12-18T01:35:03;46.13;;;27.93;;
12290;SDS011;6208;48.956;9.076;2022-12-18T01:37:47;49.67;;;28.50;;
12290;SDS011;6208;48.956;9.076;2022-12-18T01:40:31;51.20;;;30.60;;
12290;SDS011;6208;48.956;9.076;2022-12-18T01:43:16;54.17;;;29.57;;
12290;SDS011;6208;48.956;9.076;2022-12-18T01:46:00;49.83;;;28.87;;
12290;SDS011;6208;48.956;9.076;2022-12-18T01:48:44;50.87;;;29.53;;
12290;SDS011;6208;48.956;9.076;2022-12-18T01:51:33;49.37;;;28.67;;
12290;SDS011;6208;48.956;9.076;2022-12-18T01:54:17;51.07;;;29.10;;
12290;SDS011;6208;48.956;9.076;2022-12-18T01:57:01;56.60;;;30.30;;
12290;SDS011;6208;48.956;9.076;2022-12-18T01:59:47;52.80;;;29.20;;
12290;SDS011;6208;48.956;9.076;2022-12-18T02:02:36;54.30;;;30.50;;
12290;SDS011;6208;48.956;9.076;2022-12-18T02:11:40;47.23;;;27.57;;
12290;SDS011;6208;48.956;9.076;2022-12-18T02:14:38;49.33;;;27.80;;
12290;SDS011;6208;48.956;9.076;2022-12-18T02:17:38;46.27;;;27.70;;
12290;SDS011;6208;48.956;9.076;2022-12-18T02:23:41;47.83;;;27.47;;
12290;SDS011;6208;48.956;9.076;2022-12-18T02:26:38;49.43;;;28.03;;
12290;SDS011;6208;48.956;9.076;2022-12-18T02:32:38;49.43;;;27.83;;
12290;SDS011;6208;48.956;9.076;2022-12-18T02:35:26;45.73;;;27.20;;
12290;SDS011;6208;48.956;9.076;2022-12-18T02:38:13;48.37;;;27.63;;
12290;SDS011;6208;48.956;9.076;2022-12-18T02:40:59;47.40;;;28.60;;
12290;SDS011;6208;48.956;9.076;2022-12-18T02:43:48;55.07;;;28.43;;
12290;SDS011;6208;48.956;9.076;2022-12-18T02:46:34;51.90;;;30.43;;
12290;SDS011;6208;48.956;9.076;2022-12-18T02:58:16;48.67;;;27.17;;
12290;SDS011;6208;48.956;9.076;2022-12-18T03:01:15;47.43;;;27.27;;
12290;SDS011;6208;48.956;9.076;2022-12-18T03:04:12;44.97;;;27.83;;
12290;SDS011;6208;48.956;9.076;2022-12-18T03:07:02;42.07;;;26.30;;
12290;SDS011;6208;48.956;9.076;2022-12-18T03:09:51;46.30;;;26.57;;
12290;SDS011;6208;48.956;9.076;2022-12-18T03:12:38;48.63;;;26.70;;
12290;SDS011;6208;48.956;9.076;2022-12-18T03:15:35;40.73;;;26.80;;
12290;SDS011;6208;48.956;9.076;2022-12-18T03:18:47;53.30;;;28.10;;
12290;SDS011;6208;48.956;9.076;2022-12-18T03:21:45;50.23;;;26.47;;
12290;SDS011;6208;48.956;9.076;2022-12-18T03:24:33;42.53;;;25.67;;
12290;SDS011;6208;48.956;9.076;2022-12-18T03:27:22;47.10;;;26.67;;
12290;SDS011;6208;48.956;9.076;2022-12-18T03:30:09;43.13;;;24.67;;
12290;SDS011;6208;48.956;9.076;2022-12-18T03:36:03;41.40;;;24.80;;
12290;SDS011;6208;48.956;9.076;2022-12-18T03:38:47;45.63;;;25.93;;
12290;SDS011;6208;48.956;9.076;2022-12-18T03:41:33;45.53;;;25.90;;
12290;SDS011;6208;48.956;9.076;2022-12-18T03:44:36;43.87;;;24.87;;
12290;SDS011;6208;48.956;9.076;2022-12-18T03:50:46;46.03;;;26.40;;
12290;SDS011;6208;48.956;9.076;2022-12-18T03:53:58;46.43;;;26.17;;
12290;SDS011;6208;48.956;9.076;2022-12-18T03:56:46;38.50;;;23.70;;
12290;SDS011;6208;48.956;9.076;2022-12-18T03:59:34;40.20;;;23.97;;
12290;SDS011;6208;48.956;9.076;2022-12-18T04:02:21;43.47;;;24.77;;
12290;SDS011;6208;48.956;9.076;2022-12-18T04:05:07;44.10;;;25.10;;
12290;SDS011;6208;48.956;9.076;2022-12-18T04:07:53;44.90;;;25.43;;
12290;SDS011;6208;48.956;9.076;2022-12-18T04:10:39;40.00;;;24.60;;
12290;SDS011;6208;48.956;9.076;2022-12-18T04:13:34;42.60;;;24.93;;
12290;SDS011;6208;48.956;9.076;2022-12-18T04:16:20;39.23;;;24.13;;
12290;SDS011;6208;48.956;9.076;2022-12-18T04:19:04;41.80;;;25.10;;
12290;SDS011;6208;48.956;9.076;2022-12-18T04:21:48;43.63;;;25.10;;
12290;SDS011;6208;48.956;9.076;2022-12-18T04:24:32;49.60;;;25.43;;
12290;SDS011;6208;48.956;9.076;2022-12-18T04:27:17;44.97;;;24.63;;
12290;SDS011;6208;48.956;9.076;2022-12-18T04:30:02;38.37;;;24.20;;
12290;SDS011;6208;48.956;9.076;2022-12-18T04:32:46;39.77;;;24.07;;
12290;SDS011;6208;48.956;9.076;2022-12-18T04:35:30;37.90;;;23.47;;
12290;SDS011;6208;48.956;9.076;2022-12-18T04:38:14;37.63;;;23.20;;
12290;SDS011;6208;48.956;9.076;2022-12-18T04:40:59;40.47;;;22.97;;
12290;SDS011;6208;48.956;9.076;2022-12-18T04:43:43;38.63;;;23.63;;
12290;SDS011;6208;48.956;9.076;2022-12-18T04:46:27;42.17;;;23.70;;
12290;SDS011;6208;48.956;9.076;2022-12-18T04:49:11;39.83;;;23.43;;
12290;SDS011;6208;48.956;9.076;2022-12-18T04:51:56;39.27;;;22.80;;
12290;SDS011;6208;48.956;9.076;2022-12-18T04:54:40;46.73;;;23.93;;
12290;SDS011;6208;48.956;9.076;2022-12-18T04:57:24;37.33;;;23.87;;
12290;SDS011;6208;48.956;9.076;2022-12-18T05:00:08;38.67;;;22.50;;
12290;SDS011;6208;48.956;9.076;2022-12-18T05:02:53;40.70;;;24.43;;
12290;SDS011;6208;48.956;9.076;2022-12-18T05:05:37;41.67;;;24.03;;
12290;SDS011;6208;48.956;9.076;2022-12-18T05:08:21;41.43;;;23.80;;
12290;SDS011;6208;48.956;9.076;2022-12-18T05:11:06;42.63;;;24.83;;
12290;SDS011;6208;48.956;9.076;2022-12-18T05:13:53;40.27;;;21.70;;
12290;SDS011;6208;48.956;9.076;2022-12-18T05:16:41;42.50;;;21.60;;
12290;SDS011;6208;48.956;9.076;2022-12-18T05:19:25;40.80;;;21.93;;
12290;SDS011;6208;48.956;9.076;2022-12-18T05:22:09;38.77;;;21.77;;
12290;SDS011;6208;48.956;9.076;2022-12-18T05:24:53;41.00;;;23.23;;
12290;SDS011;6208;48.956;9.076;2022-12-18T05:27:37;37.83;;;21.70;;
12290;SDS011;6208;48.956;9.076;2022-12-18T05:30:21;36.93;;;22.37;;
12290;SDS011;6208;48.956;9.076;2022-12-18T05:33:06;38.57;;;21.70;;
12290;SDS011;6208;48.956;9.076;2022-12-18T05:35:53;36.57;;;21.77;;
12290;SDS011;6208;48.956;9.076;2022-12-18T05:38:39;36.27;;;20.63;;
12290;SDS011;6208;48.956;9.076;2022-12-18T05:41:23;37.60;;;22.50;;
12290;SDS011;6208;48.956;9.076;2022-12-18T05:44:07;38.73;;;20.83;;
12290;SDS011;6208;48.956;9.076;2022-12-18T05:46:51;37.13;;;21.67;;
12290;SDS011;6208;48.956;9.076;2022-12-18T05:49:35;39.07;;;21.87;;
12290;SDS011;6208;48.956;9.076;2022-12-18T05:52:20;39.10;;;21.57;;
12290;SDS011;6208;48.956;9.076;2022-12-18T05:55:04;39.27;;;22.57;;
12290;SDS011;6208;48.956;9.076;2022-12-18T05:57:49;36.50;;;21.50;;
12290;SDS011;6208;48.956;9.076;2022-12-18T06:00:35;37.37;;;21.73;;
12290;SDS011;6208;48.956;9.076;2022-12-18T06:03:25;35.73;;;19.93;;
12290;SDS011;6208;48.956;9.076;2022-12-18T06:06:12;35.97;;;21.33;;
12290;SDS011;6208;48.956;9.076;2022-12-18T06:08:58;34.80;;;20.33;;
12290;SDS011;6208;48.956;9.076;2022-12-18T06:11:42;36.77;;;20.77;;
12290;SDS011;6208;48.956;9.076;2022-12-18T06:14:26;36.97;;;21.73;;
12290;SDS011;6208;48.956;9.076;2022-12-18T06:17:11;39.20;;;20.17;;
12290;SDS011;6208;48.956;9.076;2022-12-18T06:19:55;40.03;;;21.40;;
12290;SDS011;6208;48.956;9.076;2022-12-18T06:22:39;36.73;;;21.20;;
12290;SDS011;6208;48.956;9.076;2022-12-18T06:25:23;35.63;;;20.93;;
12290;SDS011;6208;48.956;9.076;2022-12-18T06:28:07;34.37;;;20.13;;
12290;SDS011;6208;48.956;9.076;2022-12-18T06:30:51;35.50;;;20.07;;
12290;SDS011;6208;48.956;9.076;2022-12-18T06:33:36;32.00;;;19.77;;
12290;SDS011;6208;48.956;9.076;2022-12-18T06:36:21;33.47;;;20.07;;
12290;SDS011;6208;48.956;9.076;2022-12-18T06:39:06;40.63;;;19.87;;
12290;SDS011;6208;48.956;9.076;2022-12-18T06:41:50;35.37;;;21.10;;
12290;SDS011;6208;48.956;9.076;2022-12-18T06:44:34;32.47;;;18.70;;
12290;SDS011;6208;48.956;9.076;2022-12-18T06:47:18;33.37;;;19.33;;
12290;SDS011;6208;48.956;9.076;2022-12-18T06:50:02;30.63;;;18.37;;
12290;SDS011;6208;48.956;9.076;2022-12-18T06:52:47;32.10;;;19.97;;
12290;SDS011;6208;48.956;9.076;2022-12-18T06:55:31;33.00;;;20.53;;
12290;SDS011;6208;48.956;9.076;2022-12-18T06:58:15;33.67;;;19.97;;
12290;SDS011;6208;48.956;9.076;2022-12-18T07:01:03;35.23;;;20.27;;
12290;SDS011;6208;48.956;9.076;2022-12-18T07:03:53;32.67;;;20.00;;
12290;SDS011;6208;48.956;9.076;2022-12-18T07:06:38;38.93;;;20.10;;
12290;SDS011;6208;48.956;9.076;2022-12-18T07:09:23;32.03;;;20.17;;
12290;SDS011;6208;48.956;9.076;2022-12-18T07:12:07;37.80;;;21.03;;
12290;SDS011;6208;48.956;9.076;2022-12-18T07:14:51;29.00;;;18.83;;
12290;SDS011;6208;48.956;9.076;2022-12-18T07:17:35;32.10;;;20.20;;
12290;SDS011;6208;48.956;9.076;2022-12-18T07:20:20;28.40;;;19.03;;
12290;SDS011;6208;48.956;9.076;2022-12-18T07:23:04;34.37;;;19.13;;
12290;SDS011;6208;48.956;9.076;2022-12-18T07:25:49;32.83;;;18.87;;
12290;SDS011;6208;48.956;9.076;2022-12-18T07:28:33;33.10;;;18.93;;
12290;SDS011;6208;48.956;9.076;2022-12-18T07:31:19;35.33;;;18.73;;
12290;SDS011;6208;48.956;9.076;2022-12-18T07:34:05;34.30;;;19.90;;
12290;SDS011;6208;48.956;9.076;2022-12-18T07:36:48;35.20;;;19.47;;
12290;SDS011;6208;48.956;9.076;2022-12-18T07:39:32;33.83;;;20.60;;
12290;SDS011;6208;48.956;9.076;2022-12-18T07:42:17;34.73;;;19.77;;
12290;SDS011;6208;48.956;9.076;2022-12-18T07:45:16;36.60;;;20.57;;
12290;SDS011;6208;48.956;9.076;2022-12-18T07:48:01;39.53;;;21.27;;
12290;SDS011;6208;48.956;9.076;2022-12-18T07:50:45;36.17;;;19.57;;
12290;SDS011;6208;48.956;9.076;2022-12-18T07:53:29;33.10;;;19.40;;
12290;SDS011;6208;48.956;9.076;2022-12-18T07:56:14;36.53;;;19.87;;
12290;SDS011;6208;48.956;9.076;2022-12-18T07:58:58;33.80;;;19.50;;
12290;SDS011;6208;48.956;9.076;2022-12-18T08:01:46;32.53;;;19.90;;
12290;SDS011;6208;48.956;9.076;2022-12-18T08:04:30;35.77;;;20.27;;
12290;SDS011;6208;48.956;9.076;2022-12-18T08:07:18;38.87;;;21.33;;
12290;SDS011;6208;48.956;9.076;2022-12-18T08:10:02;33.70;;;19.90;;
12290;SDS011;6208;48.956;9.076;2022-12-18T08:12:50;33.03;;;20.43;;
12290;SDS011;6208;48.956;9.076;2022-12-18T08:15:35;40.70;;;21.10;;
12290;SDS011;6208;48.956;9.076;2022-12-18T08:18:19;32.03;;;20.07;;
12290;SDS011;6208;48.956;9.076;2022-12-18T08:21:14;34.50;;;19.93;;
12290;SDS011;6208;48.956;9.076;2022-12-18T08:24:00;35.37;;;20.73;;
12290;SDS011;6208;48.956;9.076;2022-12-18T08:26:44;32.97;;;19.63;;
12290;SDS011;6208;48.956;9.076;2022-12-18T08:29:29;32.90;;;20.57;;
12290;SDS011;6208;48.956;9.076;2022-12-18T08:32:14;37.33;;;20.77;;
12290;SDS011;6208;48.956;9.076;2022-12-18T08:34:58;34.23;;;20.13;;
12290;SDS011;6208;48.956;9.076;2022-12-18T08:37:43;34.43;;;20.93;;
12290;SDS011;6208;48.956;9.076;2022-12-18T08:40:27;36.87;;;20.87;;
12290;SDS011;6208;48.956;9.076;2022-12-18T08:43:11;33.07;;;19.77;;
12290;SDS011;6208;48.956;9.076;2022-12-18T08:46:14;35.40;;;19.83;;
12290;SDS011;6208;48.956;9.076;2022-12-18T08:49:01;35.17;;;21.97;;
12290;SDS011;6208;48.956;9.076;2022-12-18T08:51:46;36.00;;;20.77;;
12290;SDS011;6208;48.956;9.076;2022-12-18T08:54:30;34.67;;;20.57;;
12290;SDS011;6208;48.956;9.076;2022-12-18T08:57:14;39.07;;;20.77;;
12290;SDS011;6208;48.956;9.076;2022-12-18T08:59:59;35.00;;;21.37;;
12290;SDS011;6208;48.956;9.076;2022-12-18T09:02:43;34.30;;;21.57;;
12290;SDS011;6208;48.956;9.076;2022-12-18T09:05:27;36.40;;;21.83;;
12290;SDS011;6208;48.956;9.076;2022-12-18T09:08:12;33.03;;;20.33;;
12290;SDS011;6208;48.956;9.076;2022-12-18T09:10:56;33.63;;;21.07;;
12290;SDS011;6208;48.956;9.076;2022-12-18T09:13:40;32.77;;;21.40;;
12290;SDS011;6208;48.956;9.076;2022-12-18T09:16:25;39.50;;;21.80;;
12290;SDS011;6208;48.956;9.076;2022-12-18T09:19:13;34.47;;;20.50;;
12290;SDS011;6208;48.956;9.076;2022-12-18T09:21:57;39.00;;;21.90;;
12290;SDS011;6208;48.956;9.076;2022-12-18T09:24:41;33.53;;;21.03;;
12290;SDS011;6208;48.956;9.076;2022-12-18T09:27:25;39.53;;;21.57;;
12290;SDS011;6208;48.956;9.076;2022-12-18T09:30:09;36.57;;;21.23;;
12290;SDS011;6208;48.956;9.076;2022-12-18T09:32:54;38.53;;;21.37;;
12290;SDS011;6208;48.956;9.076;2022-12-18T09:35:39;36.70;;;21.03;;
12290;SDS011;6208;48.956;9.076;2022-12-18T09:38:25;33.00;;;20.83;;
12290;SDS011;6208;48.956;9.076;2022-12-18T09:41:53;38.80;;;22.00;;
12290;SDS011;6208;48.956;9.076;2022-12-18T09:47:15;39.23;;;22.03;;
12290;SDS011;6208;48.956;9.076;2022-12-18T09:50:05;33.47;;;20.57;;
12290;SDS011;6208;48.956;9.076;2022-12-18T09:53:14;34.30;;;20.17;;
12290;SDS011;6208;48.956;9.076;2022-12-18T09:56:03;37.37;;;21.23;;
12290;SDS011;6208;48.956;9.076;2022-12-18T09:58:53;31.00;;;19.90;;
12290;SDS011;6208;48.956;9.076;2022-12-18T10:01:43;36.93;;;21.57;;
12290;SDS011;6208;48.956;9.076;2022-12-18T10:04:28;34.23;;;21.07;;
12290;SDS011;6208;48.956;9.076;2022-12-18T10:07:17;36.80;;;21.37;;
12290;SDS011;6208;48.956;9.076;2022-12-18T10:13:31;41.83;;;22.97;;
12290;SDS011;6208;48.956;9.076;2022-12-18T10:22:41;37.53;;;22.30;;
12290;SDS011;6208;48.956;9.076;2022-12-18T10:28:35;37.23;;;22.40;;
12290;SDS011;6208;48.956;9.076;2022-12-18T10:31:23;39.77;;;21.97;;
12290;SDS011;6208;48.956;9.076;2022-12-18T10:34:11;33.87;;;20.10;;
12290;SDS011;6208;48.956;9.076;2022-12-18T10:37:06;37.93;;;21.67;;
12290;SDS011;6208;48.956;9.076;2022-12-18T10:40:12;39.13;;;22.90;;
12290;SDS011;6208;48.956;9.076;2022-12-18T10:43:03;40.00;;;22.53;;
12290;SDS011;6208;48.956;9.076;2022-12-18T10:45:59;38.07;;;22.07;;
12290;SDS011;6208;48.956;9.076;2022-12-18T10:51:35;37.67;;;22.83;;
12290;SDS011;6208;48.956;9.076;2022-12-18T10:54:21;38.13;;;22.70;;
12290;SDS011;6208;48.956;9.076;2022-12-18T10:57:19;35.57;;;21.57;;
12290;SDS011;6208;48.956;9.076;2022-12-18T11:00:22;41.10;;;21.83;;
12290;SDS011;6208;48.956;9.076;2022-12-18T11:03:59;39.67;;;22.60;;
12290;SDS011;6208;48.956;9.076;2022-12-18T11:06:26;34.33;;;22.43;;
12290;SDS011;6208;48.956;9.076;2022-12-18T11:09:21;39.73;;;22.73;;
12290;SDS011;6208;48.956;9.076;2022-12-18T11:15:01;44.60;;;23.60;;
12290;SDS011;6208;48.956;9.076;2022-12-18T11:17:46;37.57;;;22.03;;
12290;SDS011;6208;48.956;9.076;2022-12-18T11:20:34;38.03;;;22.10;;
12290;SDS011;6208;48.956;9.076;2022-12-18T11:23:20;41.40;;;22.20;;
12290;SDS011;6208;48.956;9.076;2022-12-18T11:26:08;38.77;;;22.80;;
12290;SDS011;6208;48.956;9.076;2022-12-18T11:29:07;39.20;;;20.70;;
12290;SDS011;6208;48.956;9.076;2022-12-18T11:32:05;37.63;;;21.37;;
12290;SDS011;6208;48.956;9.076;2022-12-18T11:38:42;35.00;;;20.00;;
12290;SDS011;6208;48.956;9.076;2022-12-18T11:41:28;37.53;;;21.83;;
12290;SDS011;6208;48.956;9.076;2022-12-18T11:44:46;35.97;;;21.60;;
12290;SDS011;6208;48.956;9.076;2022-12-18T11:53:20;35.43;;;20.87;;
12290;SDS011;6208;48.956;9.076;2022-12-18T11:56:14;33.43;;;19.47;;
12290;SDS011;6208;48.956;9.076;2022-12-18T11:59:26;33.00;;;20.90;;
12290;SDS011;6208;48.956;9.076;2022-12-18T12:05:56;38.50;;;22.10;;
12290;SDS011;6208;48.956;9.076;2022-12-18T12:09:10;38.27;;;23.03;;
12290;SDS011;6208;48.956;9.076;2022-12-18T12:12:10;38.37;;;22.00;;
12290;SDS011;6208;48.956;9.076;2022-12-18T12:15:04;44.63;;;24.03;;
12290;SDS011;6208;48.956;9.076;2022-12-18T12:24:33;39.10;;;22.40;;
12290;SDS011;6208;48.956;9.076;2022-12-18T12:33:52;36.60;;;23.13;;
12290;SDS011;6208;48.956;9.076;2022-12-18T12:39:51;39.40;;;24.10;;
12290;SDS011;6208;48.956;9.076;2022-12-18T12:42:47;43.23;;;23.90;;
12290;SDS011;6208;48.956;9.076;2022-12-18T12:48:56;41.33;;;25.17;;
12290;SDS011;6208;48.956;9.076;2022-12-18T12:51:47;35.20;;;20.83;;
12290;SDS011;6208;48.956;9.076;2022-12-18T12:54:44;42.90;;;22.17;;
12290;SDS011;6208;48.956;9.076;2022-12-18T12:57:46;39.50;;;20.87;;
12290;SDS011;6208;48.956;9.076;2022-12-18T13:00:41;44.53;;;21.53;;
12290;SDS011;6208;48.956;9.076;2022-12-18T13:09:33;40.80;;;22.03;;
12290;SDS011;6208;48.956;9.076;2022-12-18T13:12:18;36.20;;;21.20;;
12290;SDS011;6208;48.956;9.076;2022-12-18T13:15:26;35.63;;;20.03;;
12290;SDS011;6208;48.956;9.076;2022-12-18T13:18:21;35.47;;;20.23;;
12290;SDS011;6208;48.956;9.076;2022-12-18T13:21:21;36.20;;;21.60;;
12290;SDS011;6208;48.956;9.076;2022-12-18T13:24:26;35.20;;;21.23;;
12290;SDS011;6208;48.956;9.076;2022-12-18T13:36:46;31.60;;;20.27;;
12290;SDS011;6208;48.956;9.076;2022-12-18T13:39:21;36.00;;;21.00;;
12290;SDS011;6208;48.956;9.076;2022-12-18T13:45:39;31.77;;;19.73;;
12290;SDS011;6208;48.956;9.076;2022-12-18T13:48:26;34.57;;;21.00;;
12290;SDS011;6208;48.956;9.076;2022-12-18T13:51:11;36.20;;;21.03;;
12290;SDS011;6208;48.956;9.076;2022-12-18T13:54:02;38.60;;;21.53;;
12290;SDS011;6208;48.956;9.076;2022-12-18T13:56:57;36.87;;;21.63;;
12290;SDS011;6208;48.956;9.076;2022-12-18T13:59:41;34.07;;;20.67;;
12290;SDS011;6208;48.956;9.076;2022-12-18T14:02:26;35.67;;;20.10;;
12290;SDS011;6208;48.956;9.076;2022-12-18T14:08:30;34.07;;;19.03;;
12290;SDS011;6208;48.956;9.076;2022-12-18T14:11:22;36.37;;;20.77;;
12290;SDS011;6208;48.956;9.076;2022-12-18T14:14:07;37.83;;;19.93;;
12290;SDS011;6208;48.956;9.076;2022-12-18T14:16:51;34.63;;;18.90;;
12290;SDS011;6208;48.956;9.076;2022-12-18T14:19:36;32.60;;;18.93;;
12290;SDS011;6208;48.956;9.076;2022-12-18T14:22:21;34.30;;;19.40;;
12290;SDS011;6208;48.956;9.076;2022-12-18T14:28:30;26.97;;;17.17;;
12290;SDS011;6208;48.956;9.076;2022-12-18T14:31:16;32.43;;;18.10;;
12290;SDS011;6208;48.956;9.076;2022-12-18T14:34:01;28.17;;;18.73;;
12290;SDS011;6208;48.956;9.076;2022-12-18T14:36:52;39.57;;;22.80;;
12290;SDS011;6208;48.956;9.076;2022-12-18T14:39:38;34.93;;;21.57;;
12290;SDS011;6208;48.956;9.076;2022-12-18T14:42:24;33.20;;;19.00;;
12290;SDS011;6208;48.956;9.076;2022-12-18T14:45:31;33.60;;;19.57;;
12290;SDS011;6208;48.956;9.076;2022-12-18T14:51:27;30.80;;;19.27;;
12290;SDS011;6208;48.956;9.076;2022-12-18T14:54:14;35.47;;;19.97;;
12290;SDS011;6208;48.956;9.076;2022-12-18T14:57:05;33.63;;;20.67;;
12290;SDS011;6208;48.956;9.076;2022-12-18T15:00:06;34.40;;;20.03;;
12290;SDS011;6208;48.956;9.076;2022-12-18T15:02:58;38.50;;;20.93;;
12290;SDS011;6208;48.956;9.076;2022-12-18T15:05:43;32.20;;;19.67;;
12290;SDS011;6208;48.956;9.076;2022-12-18T15:08:28;36.87;;;21.23;;
12290;SDS011;6208;48.956;9.076;2022-12-18T15:17:18;35.53;;;19.90;;
12290;SDS011;6208;48.956;9.076;2022-12-18T15:20:09;34.57;;;20.43;;
12290;SDS011;6208;48.956;9.076;2022-12-18T15:22:54;35.77;;;20.37;;
12290;SDS011;6208;48.956;9.076;2022-12-18T15:25:38;31.13;;;20.07;;
12290;SDS011;6208;48.956;9.076;2022-12-18T15:28:26;32.00;;;21.07;;
12290;SDS011;6208;48.956;9.076;2022-12-18T15:34:08;34.93;;;21.03;;
12290;SDS011;6208;48.956;9.076;2022-12-18T15:37:07;35.47;;;20.27;;
12290;SDS011;6208;48.956;9.076;2022-12-18T15:39:51;33.30;;;19.30;;
12290;SDS011;6208;48.956;9.076;2022-12-18T15:42:36;38.60;;;21.70;;
12290;SDS011;6208;48.956;9.076;2022-12-18T15:45:39;43.50;;;25.53;;
12290;SDS011;6208;48.956;9.076;2022-12-18T15:48:23;37.10;;;23.03;;
12290;SDS011;6208;48.956;9.076;2022-12-18T15:51:15;35.47;;;21.70;;
12290;SDS011;6208;48.956;9.076;2022-12-18T15:54:05;38.10;;;22.97;;
12290;SDS011;6208;48.956;9.076;2022-12-18T15:56:53;44.60;;;24.03;;
12290;SDS011;6208;48.956;9.076;2022-12-18T15:59:56;43.57;;;26.97;;
12290;SDS011;6208;48.956;9.076;2022-12-18T16:02:41;47.90;;;27.63;;
12290;SDS011;6208;48.956;9.076;2022-12-18T16:05:25;48.30;;;28.43;;
12290;SDS011;6208;48.956;9.076;2022-12-18T16:08:10;37.03;;;22.73;;
12290;SDS011;6208;48.956;9.076;2022-12-18T16:10:55;38.70;;;22.10;;
12290;SDS011;6208;48.956;9.076;2022-12-18T16:13:40;37.50;;;23.57;;
12290;SDS011;6208;48.956;9.076;2022-12-18T16:16:24;37.13;;;22.20;;
12290;SDS011;6208;48.956;9.076;2022-12-18T16:19:08;38.43;;;22.57;;
12290;SDS011;6208;48.956;9.076;2022-12-18T16:21:53;39.67;;;22.77;;
12290;SDS011;6208;48.956;9.076;2022-12-18T16:24:39;38.70;;;22.97;;
12290;SDS011;6208;48.956;9.076;2022-12-18T16:27:26;34.37;;;22.40;;
12290;SDS011;6208;48.956;9.076;2022-12-18T16:30:14;36.50;;;21.87;;
12290;SDS011;6208;48.956;9.076;2022-12-18T16:33:00;34.23;;;21.00;;
12290;SDS011;6208;48.956;9.076;2022-12-18T16:35:50;34.30;;;21.67;;
12290;SDS011;6208;48.956;9.076;2022-12-18T16:38:35;32.17;;;19.90;;
12290;SDS011;6208;48.956;9.076;2022-12-18T16:41:19;36.07;;;22.27;;
12290;SDS011;6208;48.956;9.076;2022-12-18T16:44:16;33.23;;;19.90;;
12290;SDS011;6208;48.956;9.076;2022-12-18T16:47:01;34.73;;;20.20;;
12290;SDS011;6208;48.956;9.076;2022-12-18T16:49:45;31.00;;;20.43;;
12290;SDS011;6208;48.956;9.076;2022-12-18T16:52:30;32.37;;;19.67;;
12290;SDS011;6208;48.956;9.076;2022-12-18T16:55:14;41.60;;;27.73;;
12290;SDS011;6208;48.956;9.076;2022-12-18T16:57:59;45.33;;;28.40;;
12290;SDS011;6208;48.956;9.076;2022-12-18T17:00:43;33.57;;;21.83;;
12290;SDS011;6208;48.956;9.076;2022-12-18T17:03:27;35.03;;;21.40;;
12290;SDS011;6208;48.956;9.076;2022-12-18T17:06:12;36.57;;;23.40;;
12290;SDS011;6208;48.956;9.076;2022-12-18T17:08:58;38.10;;;23.47;;
12290;SDS011;6208;48.956;9.076;2022-12-18T17:11:43;52.40;;;32.10;;
12290;SDS011;6208;48.956;9.076;2022-12-18T17:14:27;64.77;;;33.63;;
12290;SDS011;6208;48.956;9.076;2022-12-18T17:17:12;47.07;;;27.17;;
12290;SDS011;6208;48.956;9.076;2022-12-18T17:19:56;32.20;;;19.07;;
12290;SDS011;6208;48.956;9.076;2022-12-18T17:22:41;27.77;;;18.50;;
12290;SDS011;6208;48.956;9.076;2022-12-18T17:25:25;30.83;;;18.97;;
12290;SDS011;6208;48.956;9.076;2022-12-18T17:28:09;34.57;;;19.67;;
12290;SDS011;6208;48.956;9.076;2022-12-18T17:30:54;32.37;;;20.03;;
12290;SDS011;6208;48.956;9.076;2022-12-18T17:33:38;30.67;;;19.30;;
12290;SDS011;6208;48.956;9.076;2022-12-18T17:36:23;32.13;;;19.47;;
12290;SDS011;6208;48.956;9.076;2022-12-18T17:39:14;29.37;;;18.77;;
12290;SDS011;6208;48.956;9.076;2022-12-18T17:42:00;31.07;;;19.93;;
12290;SDS011;6208;48.956;9.076;2022-12-18T17:44:44;29.47;;;18.10;;
12290;SDS011;6208;48.956;9.076;2022-12-18T17:47:28;30.57;;;18.10;;
12290;SDS011;6208;48.956;9.076;2022-12-18T17:50:13;27.53;;;18.77;;
12290;SDS011;6208;48.956;9.076;2022-12-18T17:52:57;31.57;;;18.87;;
12290;SDS011;6208;48.956;9.076;2022-12-18T17:55:41;34.80;;;20.97;;
12290;SDS011;6208;48.956;9.076;2022-12-18T17:58:26;31.53;;;19.97;;
12290;SDS011;6208;48.956;9.076;2022-12-18T18:01:11;32.43;;;19.17;;
12290;SDS011;6208;48.956;9.076;2022-12-18T18:03:58;31.03;;;18.70;;
12290;SDS011;6208;48.956;9.076;2022-12-18T18:06:43;29.03;;;18.50;;
12290;SDS011;6208;48.956;9.076;2022-12-18T18:09:27;32.60;;;20.60;;
12290;SDS011;6208;48.956;9.076;2022-12-18T18:12:11;34.73;;;21.73;;
12290;SDS011;6208;48.956;9.076;2022-12-18T18:15:14;48.60;;;28.90;;
12290;SDS011;6208;48.956;9.076;2022-12-18T18:17:59;35.23;;;23.10;;
12290;SDS011;6208;48.956;9.076;2022-12-18T18:20:43;30.47;;;19.03;;
12290;SDS011;6208;48.956;9.076;2022-12-18T18:23:27;28.63;;;17.63;;
12290;SDS011;6208;48.956;9.076;2022-12-18T18:26:13;29.40;;;18.50;;
12290;SDS011;6208;48.956;9.076;2022-12-18T18:28:58;31.37;;;18.63;;
12290;SDS011;6208;48.956;9.076;2022-12-18T18:31:43;28.80;;;16.87;;
12290;SDS011;6208;48.956;9.076;2022-12-18T18:34:28;27.93;;;16.70;;